sensor_id;sensor_type;location;lat;lon;timestamp;pressure;altitude;pressure_sealevel;temperature;humidity
72414;BME280;60995;52.154;4.498;2022-10-16T00:01:44;100790.22;;;15.10;69.70
72414;BME280;60995;52.154;4.498;2022-10-16T00:04:00;100793.09;;;15.08;69.61
72414;BME280;60995;52.154;4.498;2022-10-16T00:06:17;100793.78;;;15.10;69.67
72414;BME280;60995;52.154;4.498;2022-10-16T00:08:37;100789.34;;;15.01;69.06
72414;BME280;60995;52.154;4.498;2022-10-16T00:11:16;100796.69;;;15.09;69.22
72414;BME280;60995;52.154;4.498;2022-10-16T00:13:32;100785.75;;;15.09;68.90
72414;BME280;60995;52.154;4.498;2022-10-16T00:15:50;100788.50;;;15.17;68.71
72414;BME280;60995;52.154;4.498;2022-10-16T00:18:06;100790.69;;;15.05;69.39
72414;BME280;60995;52.154;4.498;2022-10-16T00:20:22;100784.22;;;15.14;69.01
72414;BME280;60995;52.154;4.498;2022-10-16T00:22:38;100784.56;;;15.11;68.96
72414;BME280;60995;52.154;4.498;2022-10-16T00:24:54;100791.75;;;15.12;68.80
72414;BME280;60995;52.154;4.498;2022-10-16T00:27:10;100787.81;;;15.15;68.58
72414;BME280;60995;52.154;4.498;2022-10-16T00:29:26;100781.31;;;15.08;68.63
72414;BME280;60995;52.154;4.498;2022-10-16T00:31:42;100776.84;;;15.07;68.68
72414;BME280;60995;52.154;4.498;2022-10-16T00:33:58;100773.47;;;15.13;68.68
72414;BME280;60995;52.154;4.498;2022-10-16T00:36:17;100779.28;;;15.18;68.43
72414;BME280;60995;52.154;4.498;2022-10-16T00:38:34;100773.13;;;15.08;68.46
72414;BME280;60995;52.154;4.498;2022-10-16T00:40:50;100766.94;;;14.97;68.81
72414;BME280;60995;52.154;4.498;2022-10-16T00:43:13;100779.09;;;15.11;68.76
72414;BME280;60995;52.154;4.498;2022-10-16T00:45:50;100776.69;;;15.00;69.25
72414;BME280;60995;52.154;4.498;2022-10-16T00:48:08;100780.59;;;14.89;69.84
72414;BME280;60995;52.154;4.498;2022-10-16T00:50:33;100775.84;;;14.99;69.81
72414;BME280;60995;52.154;4.498;2022-10-16T00:52:53;100775.13;;;14.89;69.75
72414;BME280;60995;52.154;4.498;2022-10-16T00:55:10;100782.97;;;14.84;69.87
72414;BME280;60995;52.154;4.498;2022-10-16T00:57:27;100777.16;;;14.87;70.37
72414;BME280;60995;52.154;4.498;2022-10-16T00:59:43;100777.88;;;14.89;70.41
72414;BME280;60995;52.154;4.498;2022-10-16T01:01:59;100789.28;;;14.84;70.58
72414;BME280;60995;52.154;4.498;2022-10-16T01:04:16;100798.88;;;14.97;70.03
72414;BME280;60995;52.154;4.498;2022-10-16T01:06:36;100798.72;;;14.90;70.72
72414;BME280;60995;52.154;4.498;2022-10-16T01:11:45;100801.56;;;14.88;71.06
72414;BME280;60995;52.154;4.498;2022-10-16T01:16:49;100788.03;;;14.70;72.43
72414;BME280;60995;52.154;4.498;2022-10-16T01:19:19;100791.47;;;14.64;72.62
72414;BME280;60995;52.154;4.498;2022-10-16T01:21:47;100788.72;;;14.64;72.84
72414;BME280;60995;52.154;4.498;2022-10-16T01:29:53;100788.44;;;14.41;73.97
72414;BME280;60995;52.154;4.498;2022-10-16T01:32:48;100781.25;;;14.40;74.19
72414;BME280;60995;52.154;4.498;2022-10-16T01:35:15;100790.63;;;14.37;74.52
72414;BME280;60995;52.154;4.498;2022-10-16T01:37:38;100794.72;;;14.42;74.61
72414;BME280;60995;52.154;4.498;2022-10-16T01:40:02;100795.47;;;14.52;74.25
72414;BME280;60995;52.154;4.498;2022-10-16T01:42:22;100799.19;;;14.51;74.54
72414;BME280;60995;52.154;4.498;2022-10-16T01:44:44;100793.75;;;14.51;74.55
72414;BME280;60995;52.154;4.498;2022-10-16T01:47:03;100796.44;;;14.43;74.90
72414;BME280;60995;52.154;4.498;2022-10-16T01:49:25;100797.88;;;14.55;74.66
72414;BME280;60995;52.154;4.498;2022-10-16T01:51:51;100795.81;;;14.49;75.17
72414;BME280;60995;52.154;4.498;2022-10-16T01:54:12;100799.34;;;14.41;75.34
72414;BME280;60995;52.154;4.498;2022-10-16T01:56:33;100795.59;;;14.42;75.43
72414;BME280;60995;52.154;4.498;2022-10-16T01:58:55;100792.06;;;14.50;75.30
72414;BME280;60995;52.154;4.498;2022-10-16T02:01:18;100793.34;;;14.37;75.82
72414;BME280;60995;52.154;4.498;2022-10-16T02:03:40;100812.81;;;14.43;75.79
72414;BME280;60995;52.154;4.498;2022-10-16T02:05:59;100805.66;;;14.42;75.67
72414;BME280;60995;52.154;4.498;2022-10-16T02:08:15;100810.06;;;14.34;76.16
72414;BME280;60995;52.154;4.498;2022-10-16T02:10:31;100821.16;;;14.33;76.58
72414;BME280;60995;52.154;4.498;2022-10-16T02:12:56;100812.91;;;14.25;77.09
72414;BME280;60995;52.154;4.498;2022-10-16T02:15:16;100811.34;;;14.22;77.36
72414;BME280;60995;52.154;4.498;2022-10-16T02:17:33;100818.88;;;14.20;77.54
72414;BME280;60995;52.154;4.498;2022-10-16T02:19:49;100813.28;;;14.03;78.25
72414;BME280;60995;52.154;4.498;2022-10-16T02:22:09;100816.44;;;14.17;77.60
72414;BME280;60995;52.154;4.498;2022-10-16T02:24:48;100816.44;;;14.17;77.96
72414;BME280;60995;52.154;4.498;2022-10-16T02:29:52;100818.66;;;14.13;77.78
72414;BME280;60995;52.154;4.498;2022-10-16T02:32:15;100815.00;;;14.04;78.01
72414;BME280;60995;52.154;4.498;2022-10-16T02:34:35;100819.00;;;13.92;78.78
72414;BME280;60995;52.154;4.498;2022-10-16T02:36:53;100821.59;;;13.94;78.55
72414;BME280;60995;52.154;4.498;2022-10-16T02:39:12;100828.91;;;13.93;78.61
72414;BME280;60995;52.154;4.498;2022-10-16T02:41:30;100827.19;;;13.92;78.69
72414;BME280;60995;52.154;4.498;2022-10-16T02:43:46;100826.72;;;13.70;79.68
72414;BME280;60995;52.154;4.498;2022-10-16T02:46:02;100835.34;;;13.84;78.98
72414;BME280;60995;52.154;4.498;2022-10-16T02:48:18;100832.75;;;13.82;79.25
72414;BME280;60995;52.154;4.498;2022-10-16T02:50:34;100836.72;;;13.88;79.16
72414;BME280;60995;52.154;4.498;2022-10-16T02:52:50;100843.84;;;13.81;79.41
72414;BME280;60995;52.154;4.498;2022-10-16T02:55:06;100840.19;;;13.98;79.09
72414;BME280;60995;52.154;4.498;2022-10-16T02:57:23;100845.06;;;13.86;79.54
72414;BME280;60995;52.154;4.498;2022-10-16T02:59:39;100841.53;;;13.94;79.07
72414;BME280;60995;52.154;4.498;2022-10-16T03:01:55;100834.91;;;13.97;78.90
72414;BME280;60995;52.154;4.498;2022-10-16T03:04:11;100831.81;;;13.92;79.42
72414;BME280;60995;52.154;4.498;2022-10-16T03:06:27;100833.19;;;13.96;79.27
72414;BME280;60995;52.154;4.498;2022-10-16T03:08:43;100822.78;;;13.91;79.58
72414;BME280;60995;52.154;4.498;2022-10-16T03:10:59;100823.78;;;13.90;79.20
72414;BME280;60995;52.154;4.498;2022-10-16T03:13:16;100836.72;;;13.88;79.55
72414;BME280;60995;52.154;4.498;2022-10-16T03:15:32;100829.25;;;13.90;79.65
72414;BME280;60995;52.154;4.498;2022-10-16T03:17:48;100824.59;;;13.82;79.69
72414;BME280;60995;52.154;4.498;2022-10-16T03:20:04;100829.88;;;13.84;79.80
72414;BME280;60995;52.154;4.498;2022-10-16T03:22:20;100831.59;;;13.85;79.79
72414;BME280;60995;52.154;4.498;2022-10-16T03:24:36;100828.09;;;13.75;80.30
72414;BME280;60995;52.154;4.498;2022-10-16T03:26:52;100836.50;;;13.81;79.97
72414;BME280;60995;52.154;4.498;2022-10-16T03:29:09;100837.06;;;13.67;80.62
72414;BME280;60995;52.154;4.498;2022-10-16T03:31:25;100843.91;;;13.89;80.12
72414;BME280;60995;52.154;4.498;2022-10-16T03:33:41;100856.19;;;13.93;79.92
72414;BME280;60995;52.154;4.498;2022-10-16T03:35:57;100849.00;;;13.92;79.86
72414;BME280;60995;52.154;4.498;2022-10-16T03:38:14;100852.78;;;13.91;79.96
72414;BME280;60995;52.154;4.498;2022-10-16T03:40:30;100857.97;;;14.02;79.53
72414;BME280;60995;52.154;4.498;2022-10-16T03:42:47;100852.03;;;14.07;79.54
72414;BME280;60995;52.154;4.498;2022-10-16T03:45:04;100856.31;;;14.10;79.37
72414;BME280;60995;52.154;4.498;2022-10-16T03:47:20;100859.78;;;14.20;78.73
72414;BME280;60995;52.154;4.498;2022-10-16T03:49:38;100868.72;;;14.30;78.74
72414;BME280;60995;52.154;4.498;2022-10-16T03:51:55;100858.03;;;14.37;78.19
72414;BME280;60995;52.154;4.498;2022-10-16T03:54:13;100863.03;;;14.23;79.01
72414;BME280;60995;52.154;4.498;2022-10-16T03:56:30;100864.44;;;14.28;78.35
72414;BME280;60995;52.154;4.498;2022-10-16T03:58:46;100877.88;;;14.21;78.72
72414;BME280;60995;52.154;4.498;2022-10-16T04:01:02;100880.31;;;14.32;78.39
72414;BME280;60995;52.154;4.498;2022-10-16T04:03:18;100888.31;;;14.26;78.44
72414;BME280;60995;52.154;4.498;2022-10-16T04:05:34;100886.28;;;14.28;78.44
72414;BME280;60995;52.154;4.498;2022-10-16T04:07:50;100882.03;;;14.33;78.27
72414;BME280;60995;52.154;4.498;2022-10-16T04:10:06;100882.75;;;14.35;78.12
72414;BME280;60995;52.154;4.498;2022-10-16T04:12:26;100895.53;;;14.35;78.11
72414;BME280;60995;52.154;4.498;2022-10-16T04:14:42;100885.84;;;14.41;78.13
72414;BME280;60995;52.154;4.498;2022-10-16T04:16:58;100893.97;;;14.32;78.26
72414;BME280;60995;52.154;4.498;2022-10-16T04:19:14;100895.81;;;14.50;77.58
72414;BME280;60995;52.154;4.498;2022-10-16T04:21:30;100900.19;;;14.43;78.25
72414;BME280;60995;52.154;4.498;2022-10-16T04:23:46;100898.25;;;14.35;78.36
72414;BME280;60995;52.154;4.498;2022-10-16T04:26:02;100902.88;;;14.34;78.55
72414;BME280;60995;52.154;4.498;2022-10-16T04:28:19;100907.69;;;14.41;78.41
72414;BME280;60995;52.154;4.498;2022-10-16T04:30:37;100909.53;;;14.40;78.63
72414;BME280;60995;52.154;4.498;2022-10-16T04:32:53;100911.44;;;14.39;78.47
72414;BME280;60995;52.154;4.498;2022-10-16T04:35:09;100924.13;;;14.49;78.05
72414;BME280;60995;52.154;4.498;2022-10-16T04:37:26;100924.06;;;14.41;78.25
72414;BME280;60995;52.154;4.498;2022-10-16T04:39:43;100928.44;;;14.33;79.31
72414;BME280;60995;52.154;4.498;2022-10-16T04:41:59;100926.75;;;14.14;80.12
72414;BME280;60995;52.154;4.498;2022-10-16T04:44:15;100937.97;;;14.29;79.99
72414;BME280;60995;52.154;4.498;2022-10-16T04:46:34;100946.75;;;14.15;80.42
72414;BME280;60995;52.154;4.498;2022-10-16T04:48:50;100952.75;;;14.18;80.64
72414;BME280;60995;52.154;4.498;2022-10-16T04:51:06;100947.81;;;14.04;81.98
72414;BME280;60995;52.154;4.498;2022-10-16T04:53:24;100950.03;;;14.00;82.44
72414;BME280;60995;52.154;4.498;2022-10-16T04:55:41;100955.50;;;14.00;83.01
72414;BME280;60995;52.154;4.498;2022-10-16T04:57:57;100953.72;;;13.91;83.36
72414;BME280;60995;52.154;4.498;2022-10-16T05:00:13;100957.44;;;13.90;83.66
72414;BME280;60995;52.154;4.498;2022-10-16T05:02:30;100967.09;;;13.84;84.15
72414;BME280;60995;52.154;4.498;2022-10-16T05:04:46;100965.47;;;13.73;84.66
72414;BME280;60995;52.154;4.498;2022-10-16T05:07:02;100961.72;;;13.75;84.81
72414;BME280;60995;52.154;4.498;2022-10-16T05:09:18;100954.88;;;13.70;85.07
72414;BME280;60995;52.154;4.498;2022-10-16T05:11:34;100955.47;;;13.64;85.55
72414;BME280;60995;52.154;4.498;2022-10-16T05:13:50;100968.72;;;13.59;86.29
72414;BME280;60995;52.154;4.498;2022-10-16T05:16:07;100982.50;;;13.57;86.20
72414;BME280;60995;52.154;4.498;2022-10-16T05:18:23;100993.97;;;13.61;86.77
72414;BME280;60995;52.154;4.498;2022-10-16T05:20:40;100988.19;;;13.64;86.86
72414;BME280;60995;52.154;4.498;2022-10-16T05:22:56;100987.03;;;13.67;86.51
72414;BME280;60995;52.154;4.498;2022-10-16T05:25:12;100991.25;;;13.61;86.69
72414;BME280;60995;52.154;4.498;2022-10-16T05:27:29;101004.59;;;13.54;87.29
72414;BME280;60995;52.154;4.498;2022-10-16T05:29:45;101010.63;;;13.58;87.50
72414;BME280;60995;52.154;4.498;2022-10-16T05:32:02;101010.13;;;13.45;88.67
72414;BME280;60995;52.154;4.498;2022-10-16T05:34:19;101016.59;;;13.44;89.45
72414;BME280;60995;52.154;4.498;2022-10-16T05:36:35;101015.28;;;13.48;89.25
72414;BME280;60995;52.154;4.498;2022-10-16T05:38:54;101013.25;;;13.50;89.35
72414;BME280;60995;52.154;4.498;2022-10-16T05:41:12;101022.16;;;13.52;89.69
72414;BME280;60995;52.154;4.498;2022-10-16T05:43:29;101021.63;;;13.38;90.53
72414;BME280;60995;52.154;4.498;2022-10-16T05:45:56;101020.78;;;13.38;90.44
72414;BME280;60995;52.154;4.498;2022-10-16T05:48:16;101029.53;;;13.32;90.92
72414;BME280;60995;52.154;4.498;2022-10-16T05:50:35;101024.25;;;13.30;90.71
72414;BME280;60995;52.154;4.498;2022-10-16T05:52:51;101013.66;;;13.27;91.07
72414;BME280;60995;52.154;4.498;2022-10-16T05:55:07;101007.88;;;13.30;91.26
72414;BME280;60995;52.154;4.498;2022-10-16T05:57:23;101011.94;;;13.26;90.93
72414;BME280;60995;52.154;4.498;2022-10-16T05:59:39;101013.94;;;13.24;91.29
72414;BME280;60995;52.154;4.498;2022-10-16T06:01:55;101017.13;;;13.19;91.34
72414;BME280;60995;52.154;4.498;2022-10-16T06:04:11;101020.13;;;13.16;91.34
72414;BME280;60995;52.154;4.498;2022-10-16T06:06:28;101028.56;;;13.23;90.96
72414;BME280;60995;52.154;4.498;2022-10-16T06:08:45;101026.16;;;13.20;90.98
72414;BME280;60995;52.154;4.498;2022-10-16T06:11:03;101028.31;;;13.16;91.26
72414;BME280;60995;52.154;4.498;2022-10-16T06:13:20;101030.88;;;13.18;91.05
72414;BME280;60995;52.154;4.498;2022-10-16T06:15:37;101036.31;;;13.18;90.98
72414;BME280;60995;52.154;4.498;2022-10-16T06:17:54;101042.09;;;13.15;91.12
72414;BME280;60995;52.154;4.498;2022-10-16T06:20:10;101029.78;;;13.11;91.06
72414;BME280;60995;52.154;4.498;2022-10-16T06:22:26;101040.09;;;13.17;90.83
72414;BME280;60995;52.154;4.498;2022-10-16T06:24:42;101047.53;;;13.15;90.56
72414;BME280;60995;52.154;4.498;2022-10-16T06:26:58;101047.22;;;13.18;90.40
72414;BME280;60995;52.154;4.498;2022-10-16T06:29:14;101050.97;;;13.17;90.01
72414;BME280;60995;52.154;4.498;2022-10-16T06:31:30;101057.25;;;13.27;90.03
72414;BME280;60995;52.154;4.498;2022-10-16T06:33:51;101053.81;;;13.25;89.50
72414;BME280;60995;52.154;4.498;2022-10-16T06:36:09;101061.38;;;13.31;89.16
72414;BME280;60995;52.154;4.498;2022-10-16T06:38:27;101071.81;;;13.36;88.74
72414;BME280;60995;52.154;4.498;2022-10-16T06:40:43;101069.38;;;13.43;88.58
72414;BME280;60995;52.154;4.498;2022-10-16T06:43:00;101058.59;;;13.51;87.78
72414;BME280;60995;52.154;4.498;2022-10-16T06:45:16;101064.31;;;13.57;87.46
72414;BME280;60995;52.154;4.498;2022-10-16T06:47:32;101076.63;;;13.62;86.82
72414;BME280;60995;52.154;4.498;2022-10-16T06:49:48;101075.38;;;13.56;86.75
72414;BME280;60995;52.154;4.498;2022-10-16T06:52:04;101077.47;;;13.62;86.25
72414;BME280;60995;52.154;4.498;2022-10-16T06:54:20;101084.44;;;13.47;86.86
72414;BME280;60995;52.154;4.498;2022-10-16T06:56:39;101082.13;;;13.52;86.70
72414;BME280;60995;52.154;4.498;2022-10-16T06:58:55;101087.84;;;13.59;86.33
72414;BME280;60995;52.154;4.498;2022-10-16T07:01:12;101096.00;;;13.59;86.53
72414;BME280;60995;52.154;4.498;2022-10-16T07:03:29;101093.72;;;13.54;86.59
72414;BME280;60995;52.154;4.498;2022-10-16T07:05:46;101099.44;;;13.61;86.84
72414;BME280;60995;52.154;4.498;2022-10-16T07:08:02;101106.19;;;13.56;86.70
72414;BME280;60995;52.154;4.498;2022-10-16T07:10:20;101118.34;;;13.62;86.03
72414;BME280;60995;52.154;4.498;2022-10-16T07:12:39;101119.38;;;13.61;86.36
72414;BME280;60995;52.154;4.498;2022-10-16T07:14:55;101128.38;;;13.71;85.64
72414;BME280;60995;52.154;4.498;2022-10-16T07:17:11;101132.44;;;13.85;84.94
72414;BME280;60995;52.154;4.498;2022-10-16T07:19:27;101135.34;;;13.84;84.97
72414;BME280;60995;52.154;4.498;2022-10-16T07:21:50;101137.88;;;13.95;84.64
72414;BME280;60995;52.154;4.498;2022-10-16T07:24:07;101152.50;;;13.94;84.59
72414;BME280;60995;52.154;4.498;2022-10-16T07:26:29;101147.88;;;14.04;84.55
72414;BME280;60995;52.154;4.498;2022-10-16T07:28:47;101161.59;;;14.13;84.29
72414;BME280;60995;52.154;4.498;2022-10-16T07:31:09;101165.31;;;14.12;84.27
72414;BME280;60995;52.154;4.498;2022-10-16T07:33:28;101174.91;;;14.44;83.47
72414;BME280;60995;52.154;4.498;2022-10-16T07:35:49;101174.94;;;14.80;81.57
72414;BME280;60995;52.154;4.498;2022-10-16T07:38:10;101182.97;;;14.99;80.61
72414;BME280;60995;52.154;4.498;2022-10-16T07:40:26;101182.81;;;14.83;80.82
72414;BME280;60995;52.154;4.498;2022-10-16T07:42:47;101187.56;;;14.81;81.09
72414;BME280;60995;52.154;4.498;2022-10-16T07:45:04;101193.41;;;14.86;81.12
72414;BME280;60995;52.154;4.498;2022-10-16T07:47:21;101187.75;;;15.50;77.94
72414;BME280;60995;52.154;4.498;2022-10-16T07:49:40;101195.31;;;16.93;74.49
72414;BME280;60995;52.154;4.498;2022-10-16T07:51:56;101196.06;;;17.76;69.91
72414;BME280;60995;52.154;4.498;2022-10-16T07:54:12;101194.75;;;18.97;65.65
72414;BME280;60995;52.154;4.498;2022-10-16T07:56:31;101201.91;;;20.05;60.98
72414;BME280;60995;52.154;4.498;2022-10-16T07:58:49;101215.16;;;20.46;60.39
72414;BME280;60995;52.154;4.498;2022-10-16T08:01:06;101211.22;;;20.04;60.02
72414;BME280;60995;52.154;4.498;2022-10-16T08:03:24;101223.69;;;20.51;58.56
72414;BME280;60995;52.154;4.498;2022-10-16T08:05:49;101227.06;;;21.55;55.00
72414;BME280;60995;52.154;4.498;2022-10-16T08:08:05;101235.44;;;20.75;57.33
72414;BME280;60995;52.154;4.498;2022-10-16T08:10:22;101231.75;;;21.32;55.57
72414;BME280;60995;52.154;4.498;2022-10-16T08:12:41;101232.00;;;21.59;54.08
72414;BME280;60995;52.154;4.498;2022-10-16T08:14:58;101230.09;;;20.37;57.46
72414;BME280;60995;52.154;4.498;2022-10-16T08:17:16;101237.66;;;20.13;58.73
72414;BME280;60995;52.154;4.498;2022-10-16T08:19:32;101240.69;;;20.18;59.24
72414;BME280;60995;52.154;4.498;2022-10-16T08:21:50;101239.16;;;21.54;55.30
72414;BME280;60995;52.154;4.498;2022-10-16T08:24:06;101234.19;;;21.21;55.23
72414;BME280;60995;52.154;4.498;2022-10-16T08:26:23;101237.56;;;21.16;56.48
72414;BME280;60995;52.154;4.498;2022-10-16T08:28:39;101245.84;;;21.44;54.79
72414;BME280;60995;52.154;4.498;2022-10-16T08:30:55;101249.63;;;22.28;52.68
72414;BME280;60995;52.154;4.498;2022-10-16T08:33:12;101253.34;;;22.42;52.30
72414;BME280;60995;52.154;4.498;2022-10-16T08:35:28;101251.75;;;20.55;57.10
72414;BME280;60995;52.154;4.498;2022-10-16T08:37:47;101261.47;;;19.91;59.33
72414;BME280;60995;52.154;4.498;2022-10-16T08:40:04;101260.66;;;19.29;61.21
72414;BME280;60995;52.154;4.498;2022-10-16T08:42:31;101264.94;;;19.31;61.81
72414;BME280;60995;52.154;4.498;2022-10-16T08:48:40;101274.72;;;21.42;55.77
72414;BME280;60995;52.154;4.498;2022-10-16T08:50:41;101285.94;;;23.49;49.91
72414;BME280;60995;52.154;4.498;2022-10-16T08:52:58;101290.97;;;23.05;50.56
72414;BME280;60995;52.154;4.498;2022-10-16T08:55:26;101292.75;;;21.59;54.13
72414;BME280;60995;52.154;4.498;2022-10-16T08:57:48;101293.38;;;21.61;53.53
72414;BME280;60995;52.154;4.498;2022-10-16T09:00:08;101296.03;;;21.05;55.20
72414;BME280;60995;52.154;4.498;2022-10-16T09:02:33;101299.88;;;20.89;56.04
72414;BME280;60995;52.154;4.498;2022-10-16T09:05:16;101305.44;;;20.74;56.87
72414;BME280;60995;52.154;4.498;2022-10-16T09:10:18;101328.44;;;21.61;54.79
72414;BME280;60995;52.154;4.498;2022-10-16T09:15:35;101330.16;;;24.63;47.15
72414;BME280;60995;52.154;4.498;2022-10-16T09:21:09;101318.63;;;22.92;50.74
72414;BME280;60995;52.154;4.498;2022-10-16T09:23:30;101315.63;;;24.54;47.19
72414;BME280;60995;52.154;4.498;2022-10-16T09:25:50;101320.16;;;25.33;44.97
72414;BME280;60995;52.154;4.498;2022-10-16T09:28:07;101323.03;;;25.19;44.98
72414;BME280;60995;52.154;4.498;2022-10-16T09:30:25;101329.41;;;23.49;47.07
72414;BME280;60995;52.154;4.498;2022-10-16T09:32:45;101317.34;;;24.55;45.80
72414;BME280;60995;52.154;4.498;2022-10-16T09:35:09;101322.56;;;24.32;46.95
72414;BME280;60995;52.154;4.498;2022-10-16T09:37:32;101322.66;;;25.09;44.38
72414;BME280;60995;52.154;4.498;2022-10-16T09:39:52;101328.91;;;25.93;43.09
72414;BME280;60995;52.154;4.498;2022-10-16T09:42:10;101325.84;;;25.76;43.29
72414;BME280;60995;52.154;4.498;2022-10-16T09:44:30;101323.25;;;25.18;43.96
72414;BME280;60995;52.154;4.498;2022-10-16T09:46:47;101325.09;;;25.37;44.00
72414;BME280;60995;52.154;4.498;2022-10-16T09:49:04;101331.59;;;25.18;43.87
72414;BME280;60995;52.154;4.498;2022-10-16T09:51:35;101336.03;;;25.57;41.51
72414;BME280;60995;52.154;4.498;2022-10-16T09:53:57;101326.38;;;25.35;42.80
72414;BME280;60995;52.154;4.498;2022-10-16T09:56:25;101331.97;;;24.10;45.62
72414;BME280;60995;52.154;4.498;2022-10-16T09:58:53;101342.59;;;23.40;46.52
72414;BME280;60995;52.154;4.498;2022-10-16T10:01:12;101344.78;;;23.85;44.20
72414;BME280;60995;52.154;4.498;2022-10-16T10:03:40;101334.06;;;24.28;43.17
72414;BME280;60995;52.154;4.498;2022-10-16T10:05:58;101342.22;;;24.10;43.86
72414;BME280;60995;52.154;4.498;2022-10-16T10:08:15;101336.44;;;23.38;45.42
72414;BME280;60995;52.154;4.498;2022-10-16T10:10:35;101341.78;;;24.00;44.28
72414;BME280;60995;52.154;4.498;2022-10-16T10:12:58;101346.00;;;23.35;45.23
72414;BME280;60995;52.154;4.498;2022-10-16T10:15:15;101349.97;;;22.57;46.57
72414;BME280;60995;52.154;4.498;2022-10-16T10:17:50;101354.72;;;22.07;48.36
72414;BME280;60995;52.154;4.498;2022-10-16T10:23:13;101368.72;;;21.77;48.76
72414;BME280;60995;52.154;4.498;2022-10-16T10:33:27;101380.50;;;21.27;47.50
72414;BME280;60995;52.154;4.498;2022-10-16T10:41:11;101395.53;;;23.92;41.13
72414;BME280;60995;52.154;4.498;2022-10-16T10:46:32;101389.06;;;23.51;41.94
72414;BME280;60995;52.154;4.498;2022-10-16T10:54:20;101403.38;;;24.42;38.36
72414;BME280;60995;52.154;4.498;2022-10-16T10:59:22;101400.88;;;24.07;38.95
72414;BME280;60995;52.154;4.498;2022-10-16T11:01:54;101393.69;;;24.78;38.31
72414;BME280;60995;52.154;4.498;2022-10-16T11:06:47;101412.72;;;23.74;40.07
72414;BME280;60995;52.154;4.498;2022-10-16T11:09:21;101418.25;;;23.47;38.26
72414;BME280;60995;52.154;4.498;2022-10-16T11:11:43;101411.53;;;23.15;41.42
72414;BME280;60995;52.154;4.498;2022-10-16T11:16:56;101415.50;;;23.67;39.70
72414;BME280;60995;52.154;4.498;2022-10-16T11:21:51;101420.88;;;23.13;40.67
72414;BME280;60995;52.154;4.498;2022-10-16T11:29:58;101433.13;;;22.27;41.45
72414;BME280;60995;52.154;4.498;2022-10-16T11:32:25;101436.91;;;22.83;41.13
72414;BME280;60995;52.154;4.498;2022-10-16T11:34:53;101429.00;;;21.95;42.66
72414;BME280;60995;52.154;4.498;2022-10-16T11:37:19;101425.34;;;22.38;42.82
72414;BME280;60995;52.154;4.498;2022-10-16T11:40:03;101426.16;;;23.08;42.42
72414;BME280;60995;52.154;4.498;2022-10-16T11:42:39;101434.59;;;23.28;41.71
72414;BME280;60995;52.154;4.498;2022-10-16T11:45:03;101424.88;;;23.66;38.21
72414;BME280;60995;52.154;4.498;2022-10-16T11:50:39;101441.75;;;22.39;39.63
72414;BME280;60995;52.154;4.498;2022-10-16T11:55:35;101452.09;;;22.09;41.60
72414;BME280;60995;52.154;4.498;2022-10-16T11:57:59;101451.94;;;22.39;39.95
72414;BME280;60995;52.154;4.498;2022-10-16T12:05:35;101453.63;;;21.68;40.65
72414;BME280;60995;52.154;4.498;2022-10-16T12:08:15;101460.56;;;21.27;42.91
72414;BME280;60995;52.154;4.498;2022-10-16T12:10:32;101455.38;;;20.88;43.19
72414;BME280;60995;52.154;4.498;2022-10-16T12:12:52;101461.09;;;20.71;43.56
72414;BME280;60995;52.154;4.498;2022-10-16T12:17:50;101467.06;;;20.60;44.93
72414;BME280;60995;52.154;4.498;2022-10-16T12:22:29;101472.31;;;20.70;45.00
72414;BME280;60995;52.154;4.498;2022-10-16T12:24:50;101466.75;;;20.55;45.94
72414;BME280;60995;52.154;4.498;2022-10-16T12:27:22;101466.03;;;20.91;46.11
72414;BME280;60995;52.154;4.498;2022-10-16T12:29:43;101479.91;;;20.82;45.97
72414;BME280;60995;52.154;4.498;2022-10-16T12:32:22;101481.00;;;20.43;45.46
72414;BME280;60995;52.154;4.498;2022-10-16T12:34:49;101479.94;;;20.06;45.03
72414;BME280;60995;52.154;4.498;2022-10-16T12:37:09;101486.19;;;20.00;46.09
72414;BME280;60995;52.154;4.498;2022-10-16T12:39:34;101484.59;;;20.06;46.26
72414;BME280;60995;52.154;4.498;2022-10-16T12:42:05;101476.13;;;19.61;46.83
72414;BME280;60995;52.154;4.498;2022-10-16T12:44:35;101476.44;;;19.89;46.66
72414;BME280;60995;52.154;4.498;2022-10-16T12:46:52;101480.94;;;19.90;47.01
72414;BME280;60995;52.154;4.498;2022-10-16T12:51:43;101477.56;;;19.17;47.63
72414;BME280;60995;52.154;4.498;2022-10-16T12:54:16;101478.59;;;19.16;46.89
72414;BME280;60995;52.154;4.498;2022-10-16T12:56:41;101476.13;;;18.81;47.80
72414;BME280;60995;52.154;4.498;2022-10-16T13:04:19;101489.00;;;18.89;48.06
72414;BME280;60995;52.154;4.498;2022-10-16T13:07:26;101486.41;;;18.96;46.95
72414;BME280;60995;52.154;4.498;2022-10-16T13:09:56;101494.81;;;18.86;47.76
72414;BME280;60995;52.154;4.498;2022-10-16T13:15:18;101503.69;;;19.53;46.25
72414;BME280;60995;52.154;4.498;2022-10-16T13:17:57;101502.78;;;19.60;46.77
72414;BME280;60995;52.154;4.498;2022-10-16T13:23:37;101518.84;;;19.09;47.38
72414;BME280;60995;52.154;4.498;2022-10-16T13:26:07;101517.00;;;19.01;47.79
72414;BME280;60995;52.154;4.498;2022-10-16T13:28:35;101516.13;;;19.40;46.84
72414;BME280;60995;52.154;4.498;2022-10-16T13:30:54;101524.06;;;19.66;46.57
72414;BME280;60995;52.154;4.498;2022-10-16T13:33:17;101525.88;;;19.51;46.18
72414;BME280;60995;52.154;4.498;2022-10-16T13:35:46;101526.78;;;19.75;46.25
72414;BME280;60995;52.154;4.498;2022-10-16T13:38:17;101529.63;;;19.58;46.96
72414;BME280;60995;52.154;4.498;2022-10-16T13:40:51;101539.06;;;20.19;46.02
72414;BME280;60995;52.154;4.498;2022-10-16T13:43:11;101531.13;;;20.00;45.32
72414;BME280;60995;52.154;4.498;2022-10-16T13:45:27;101535.16;;;19.90;44.25
72414;BME280;60995;52.154;4.498;2022-10-16T13:47:44;101531.72;;;20.11;44.71
72414;BME280;60995;52.154;4.498;2022-10-16T13:52:30;101528.00;;;19.72;44.77